Time;durP1;ratioP1;P1;durP2;ratioP2;P2;SDS_P1;SDS_P2;PMS_P1;PMS_P2;Temp;Humidity;BMP_temperature;BMP_pressure;BME280_temperature;BME280_humidity;BME280_pressure;Samples;Min_cycle;Max_cycle;Signal;HPM_P1;HPM_P2
2022/01/15 00:00:15;;;;;;;0.93;0.90;;;;;;;-145.69;100.00;74135.41;5133653;27;20606;-78
2022/01/15 00:02:41;;;;;;;0.80;0.63;;;;;;;-145.69;100.00;74137.41;5135889;27;20205;-79
2022/01/15 00:05:10;;;;;;;1.70;1.17;;;;;;;-145.69;100.00;74153.34;5135534;27;20193;-78
2022/01/15 00:07:38;;;;;;;1.30;0.83;;;;;;;-145.69;100.00;74169.25;5135125;27;20254;-78
2022/01/15 00:10:06;;;;;;;0.83;0.83;;;;;;;-145.69;100.00;74179.22;5134708;27;20702;-78
2022/01/15 00:12:38;;;;;;;0.73;0.73;;;;;;;-145.69;100.00;74171.25;5134424;27;20200;-78
2022/01/15 00:15:06;;;;;;;1.93;0.93;;;;;;;-145.69;100.00;74153.34;5120383;27;20239;-78
2022/01/15 00:17:45;;;;;;;1.13;0.80;;;;;;;-145.69;100.00;74145.38;5115049;28;20193;-77
2022/01/15 00:20:16;;;;;;;0.80;0.80;;;;;;;-145.69;100.00;74161.28;5114789;28;20220;-77
2022/01/15 00:22:43;;;;;;;0.73;0.70;;;;;;;-145.69;100.00;74173.25;5112496;28;20233;-77
2022/01/15 00:25:10;;;;;;;1.47;1.10;;;;;;;-145.69;100.00;74173.25;5112092;28;20262;-77
2022/01/15 00:27:37;;;;;;;1.90;1.20;;;;;;;-145.69;100.00;74161.28;5112791;28;20197;-77
2022/01/15 00:30:04;;;;;;;1.90;1.00;;;;;;;-145.69;100.00;74149.34;5132929;27;20193;-77
2022/01/15 00:32:32;;;;;;;2.53;1.30;;;;;;;-145.69;100.00;74157.31;5134166;27;20197;-77
2022/01/15 00:35:00;;;;;;;2.17;1.00;;;;;;;-145.69;100.00;74137.41;5133800;27;20438;-77
2022/01/15 00:37:30;;;;;;;1.57;1.10;;;;;;;-145.69;100.00;74149.34;5134660;27;20274;-77
2022/01/15 00:39:57;;;;;;;1.30;1.17;;;;;;;-145.69;100.00;74137.41;5135013;27;20207;-77
2022/01/15 00:42:24;;;;;;;0.90;0.90;;;;;;;-145.69;100.00;74135.41;5135198;27;20196;-77
2022/01/15 00:44:51;;;;;;;1.67;1.10;;;;;;;-145.69;100.00;74123.47;5134513;27;20196;-77
2022/01/15 00:47:17;;;;;;;0.93;0.90;;;;;;;-145.69;100.00;74129.44;5134335;27;20201;-77
2022/01/15 00:49:44;;;;;;;1.73;1.00;;;;;;;-145.69;100.00;74135.41;5134866;27;20208;-77
2022/01/15 00:52:13;;;;;;;5.30;1.50;;;;;;;-145.69;100.00;74157.31;5134163;27;20248;-77
2022/01/15 00:54:41;;;;;;;4.33;1.57;;;;;;;-145.69;100.00;74161.28;5134167;27;20197;-77
2022/01/15 00:57:08;;;;;;;2.70;1.03;;;;;;;-145.69;100.00;74159.31;5133524;27;20196;-77
2022/01/15 00:59:34;;;;;;;1.60;1.03;;;;;;;-145.69;100.00;74163.28;5134788;27;20655;-77
2022/01/15 01:02:01;;;;;;;1.57;1.10;;;;;;;-145.69;100.00;74171.25;5135060;27;20209;-77
2022/01/15 01:04:27;;;;;;;2.37;0.90;;;;;;;-145.69;100.00;74189.19;5134918;27;20196;-77
2022/01/15 01:06:54;;;;;;;1.10;1.00;;;;;;;-145.69;100.00;74197.13;5134665;27;20665;-76
2022/01/15 01:09:22;;;;;;;1.13;0.80;;;;;;;-145.69;100.00;74203.13;5134079;27;20193;-77
2022/01/15 01:11:55;;;;;;;3.57;1.13;;;;;;;-145.69;100.00;74171.25;5134648;27;20272;-77
2022/01/15 01:20:09;;;;;;;1.33;0.80;;;;;;;-145.69;100.00;74165.28;5134063;27;20274;-77
2022/01/15 01:22:54;;;;;;;1.97;1.20;;;;;;;-145.69;100.00;74151.34;5134568;27;20232;-77
2022/01/15 01:25:21;;;;;;;1.10;1.00;;;;;;;-145.69;100.00;74149.34;5133604;27;20193;-77
2022/01/15 01:27:53;;;;;;;2.20;0.90;;;;;;;-145.69;100.00;74159.31;5133611;27;20249;-77
2022/01/15 01:30:26;;;;;;;0.70;0.70;;;;;;;-145.69;100.00;74173.25;5134297;27;20786;-77
2022/01/15 01:33:03;;;;;;;1.37;1.00;;;;;;;-145.69;100.00;74153.34;5134230;27;20656;-77
2022/01/15 01:35:35;;;;;;;1.27;0.97;;;;;;;-145.69;100.00;74163.28;5134268;27;20696;-77
2022/01/15 01:38:11;;;;;;;2.90;1.00;;;;;;;-145.69;100.00;74197.13;5133873;27;20220;-77
2022/01/15 01:40:41;;;;;;;0.70;0.70;;;;;;;-145.69;100.00;74232.97;5133448;27;20204;-77
2022/01/15 01:43:42;;;;;;;0.70;0.70;;;;;;;-145.69;100.00;74217.06;5134233;27;20827;-77
2022/01/15 01:46:16;;;;;;;1.13;0.93;;;;;;;-145.69;100.00;74211.06;5134297;27;20269;-77
2022/01/15 01:48:45;;;;;;;1.03;0.90;;;;;;;-145.69;100.00;74205.09;5133881;27;20200;-77
2022/01/15 01:51:21;;;;;;;1.07;0.70;;;;;;;-145.69;100.00;74161.28;5134279;27;20580;-77
2022/01/15 01:53:47;;;;;;;1.17;0.90;;;;;;;-145.69;100.00;74153.34;5133859;27;20200;-77
2022/01/15 01:56:14;;;;;;;0.67;0.67;;;;;;;-145.69;100.00;74157.31;5132920;27;20192;-77
2022/01/15 01:58:42;;;;;;;1.53;0.90;;;;;;;-145.69;100.00;74153.34;5121144;27;20226;-77
2022/01/15 02:01:08;;;;;;;0.67;0.67;;;;;;;-145.69;100.00;74169.25;5112378;28;20568;-77
2022/01/15 02:03:35;;;;;;;0.80;0.80;;;;;;;-145.69;100.00;74181.22;5112689;28;20202;-77
2022/01/15 02:06:03;;;;;;;1.10;1.07;;;;;;;-145.69;100.00;74181.22;5114510;28;20205;-77
2022/01/15 02:08:33;;;;;;;1.27;0.90;;;;;;;-145.69;100.00;74163.28;5133644;28;20265;-77
2022/01/15 02:11:04;;;;;;;0.70;0.70;;;;;;;-145.69;100.00;74161.28;5133656;28;20228;-77
2022/01/15 02:13:31;;;;;;;1.13;0.80;;;;;;;-145.69;100.00;74167.28;5133936;27;20223;-77
2022/01/15 02:16:02;;;;;;;0.80;0.70;;;;;;;-145.69;100.00;74159.31;5131607;28;20207;-77
2022/01/15 02:18:29;;;;;;;0.60;0.60;;;;;;;-145.69;100.00;74133.41;5130057;28;20556;-77
2022/01/15 02:23:31;;;;;;;1.00;0.70;;;;;;;-145.69;100.00;74145.38;5133520;28;20651;-77
2022/01/15 02:23:50;;;;;;;0.57;0.57;;;;;;;-145.69;100.00;74173.25;5133649;28;20279;-77
2022/01/15 02:26:20;;;;;;;0.70;0.70;;;;;;;-145.69;100.00;74191.16;5133567;28;20644;-77
2022/01/15 02:28:52;;;;;;;0.50;0.50;;;;;;;-145.69;100.00;74197.13;5132175;28;20197;-77
2022/01/15 02:31:20;;;;;;;2.00;0.80;;;;;;;-145.69;100.00;74195.16;5134048;27;20228;-77
2022/01/15 02:33:51;;;;;;;0.60;0.60;;;;;;;-145.69;100.00;74195.16;5136188;27;20197;-77
2022/01/15 02:36:22;;;;;;;1.27;0.90;;;;;;;-145.69;100.00;74211.06;5135698;27;20625;-77
2022/01/15 02:38:50;;;;;;;0.70;0.70;;;;;;;-145.69;100.00;74201.13;5137328;27;20543;-77
2022/01/15 02:41:25;;;;;;;0.80;0.80;;;;;;;-145.69;100.00;74207.09;5137746;27;20738;-77
2022/01/15 02:43:52;;;;;;;1.00;0.80;;;;;;;-145.69;100.00;74207.09;5136903;27;20207;-77
2022/01/15 02:46:34;;;;;;;1.10;0.80;;;;;;;-145.69;100.00;74209.09;5137386;27;20291;-77
2022/01/15 02:49:04;;;;;;;0.60;0.60;;;;;;;-145.69;100.00;74236.97;5137322;27;20288;-77
2022/01/15 02:51:35;;;;;;;0.90;0.90;;;;;;;-145.69;100.00;74252.91;5137352;27;20224;-78
2022/01/15 02:54:03;;;;;;;1.70;0.80;;;;;;;-145.69;100.00;74250.91;5137180;27;20196;-77
2022/01/15 02:56:34;;;;;;;0.83;0.83;;;;;;;-145.69;100.00;74246.91;5137331;27;20227;-77
2022/01/15 02:59:00;;;;;;;3.60;1.13;;;;;;;-145.69;100.00;74209.09;5136822;27;20200;-77
2022/01/15 03:01:27;;;;;;;0.67;0.67;;;;;;;-145.69;100.00;74201.13;5136623;27;20201;-77
2022/01/15 03:03:56;;;;;;;0.90;0.90;;;;;;;-145.69;100.00;74173.25;5137286;27;20210;-77
2022/01/15 03:06:23;;;;;;;0.80;0.80;;;;;;;-145.69;100.00;74175.22;5137206;27;20208;-77
2022/01/15 03:08:52;;;;;;;1.00;0.90;;;;;;;-145.69;100.00;74205.09;5136885;27;20197;-77
2022/01/15 03:11:19;;;;;;;1.13;0.73;;;;;;;-145.69;100.00;74205.09;5136921;27;20220;-77
2022/01/15 03:13:47;;;;;;;0.87;0.80;;;;;;;-145.69;100.00;74187.19;5136113;27;20220;-77
2022/01/15 03:16:15;;;;;;;1.80;0.80;;;;;;;-145.69;100.00;74193.16;5135312;27;20532;-77
2022/01/15 03:18:42;;;;;;;0.87;0.80;;;;;;;-145.69;100.00;74205.09;5135716;27;20197;-77
2022/01/15 03:21:11;;;;;;;1.00;0.77;;;;;;;-145.69;100.00;74221.03;5135908;27;20196;-77
2022/01/15 03:23:41;;;;;;;0.93;0.80;;;;;;;-145.69;100.00;74234.97;5136749;27;20200;-77
2022/01/15 03:26:12;;;;;;;2.70;0.93;;;;;;;-145.69;100.00;74207.09;5134821;27;20652;-77
2022/01/15 03:28:46;;;;;;;0.80;0.80;;;;;;;-145.69;100.00;74215.06;5136327;27;20279;-77
2022/01/15 03:31:15;;;;;;;0.77;0.77;;;;;;;-145.69;100.00;74199.13;5135158;27;20713;-77
2022/01/15 03:33:41;;;;;;;0.70;0.60;;;;;;;-145.69;100.00;74205.09;5135303;27;20694;-77
2022/01/15 03:36:10;;;;;;;0.70;0.70;;;;;;;-145.69;100.00;74213.06;5135070;27;20232;-77
2022/01/15 03:38:37;;;;;;;0.93;0.80;;;;;;;-145.69;100.00;74213.06;5135105;27;20288;-77
2022/01/15 03:41:04;;;;;;;1.43;0.80;;;;;;;-145.69;100.00;74199.13;5135756;27;20246;-77
2022/01/15 03:43:33;;;;;;;1.47;0.97;;;;;;;-145.69;100.00;74199.13;5135854;27;20196;-76
2022/01/15 03:46:00;;;;;;;1.57;0.97;;;;;;;-145.69;100.00;74207.09;5136056;27;20193;-76
2022/01/15 03:48:27;;;;;;;1.80;1.00;;;;;;;-145.69;100.00;74195.16;5135574;27;20205;-77
2022/01/15 03:50:54;;;;;;;1.70;1.07;;;;;;;-145.69;100.00;74189.19;5136110;27;20643;-77
2022/01/15 03:53:22;;;;;;;1.90;1.10;;;;;;;-145.69;100.00;74185.19;5135991;27;20200;-76
2022/01/15 03:55:50;;;;;;;0.80;0.80;;;;;;;-145.69;100.00;74179.22;5134448;27;20196;-77
2022/01/15 03:58:16;;;;;;;1.30;0.83;;;;;;;-145.69;100.00;74193.16;5136188;27;20250;-76
2022/01/15 04:00:44;;;;;;;1.40;0.93;;;;;;;-145.69;100.00;74227.00;5135816;27;20196;-77
2022/01/15 04:03:11;;;;;;;1.70;0.80;;;;;;;-145.69;100.00;74227.00;5135893;27;20716;-76
2022/01/15 04:05:37;;;;;;;1.10;1.00;;;;;;;-145.69;100.00;74213.06;5135482;27;20205;-76
2022/01/15 04:08:06;;;;;;;1.60;0.83;;;;;;;-145.69;100.00;74238.97;5135397;27;20643;-77
2022/01/15 04:10:32;;;;;;;1.47;1.00;;;;;;;-145.69;100.00;74256.88;5135635;27;20245;-77
2022/01/15 04:13:01;;;;;;;3.80;1.00;;;;;;;-145.69;100.00;74260.84;5135403;27;20741;-77
2022/01/15 04:15:28;;;;;;;2.07;1.00;;;;;;;-145.69;100.00;74280.78;5134727;27;20204;-77
2022/01/15 04:17:55;;;;;;;2.60;0.90;;;;;;;-145.69;100.00;74296.69;5133270;27;20201;-76
2022/01/15 04:20:25;;;;;;;0.80;0.80;;;;;;;-145.69;100.00;74296.69;5130767;27;20201;-76
2022/01/15 04:22:53;;;;;;;1.07;0.83;;;;;;;-145.69;100.00;74296.69;5135333;27;20666;-76
2022/01/15 04:25:19;;;;;;;3.83;1.20;;;;;;;-145.69;100.00;74280.78;5135128;27;20204;-77
2022/01/15 04:27:46;;;;;;;2.00;1.20;;;;;;;-145.69;100.00;74300.69;5135258;27;20548;-77
2022/01/15 04:30:15;;;;;;;1.77;1.00;;;;;;;-145.69;100.00;74296.69;5134172;27;20436;-76
2022/01/15 04:32:42;;;;;;;1.43;1.13;;;;;;;-145.69;100.00;74288.75;5135042;27;20227;-77
2022/01/15 04:35:12;;;;;;;2.63;1.23;;;;;;;-145.69;100.00;74286.75;5135178;27;20555;-77
2022/01/15 04:37:42;;;;;;;1.33;1.10;;;;;;;-145.69;100.00;74306.66;5134652;27;20395;-77
2022/01/15 04:40:11;;;;;;;0.90;0.90;;;;;;;-145.69;100.00;74262.84;5135020;27;20671;-77
2022/01/15 04:42:38;;;;;;;0.77;0.77;;;;;;;-145.69;100.00;74248.91;5135064;27;20224;-77
2022/01/15 04:45:08;;;;;;;1.43;1.10;;;;;;;-145.69;100.00;74246.91;5134198;27;20200;-77
2022/01/15 04:47:35;;;;;;;2.10;1.07;;;;;;;-145.69;100.00;74197.13;5133250;27;20649;-77
2022/01/15 04:50:02;;;;;;;2.73;1.17;;;;;;;-145.69;100.00;74211.06;5133976;27;20197;-77
2022/01/15 04:52:33;;;;;;;0.80;0.80;;;;;;;-145.69;100.00;74231.00;5134036;27;20273;-77
2022/01/15 04:55:00;;;;;;;1.23;1.00;;;;;;;-145.69;100.00;74260.84;5133504;27;20197;-77
2022/01/15 04:57:27;;;;;;;1.23;0.90;;;;;;;-145.69;100.00;74290.72;5134140;27;20203;-77
2022/01/15 04:59:53;;;;;;;1.50;1.20;;;;;;;-145.69;100.00;74244.94;5133825;27;20548;-76
2022/01/15 05:02:20;;;;;;;1.00;0.90;;;;;;;-145.69;100.00;74213.06;5133788;27;20203;-77
2022/01/15 05:04:46;;;;;;;3.37;1.03;;;;;;;-145.69;100.00;74227.00;5133786;27;20201;-77
2022/01/15 05:07:14;;;;;;;2.87;1.20;;;;;;;-145.69;100.00;74209.09;5133994;27;20197;-77
2022/01/15 05:09:43;;;;;;;2.07;1.40;;;;;;;-145.69;100.00;74213.06;5134311;27;20197;-76
2022/01/15 05:12:25;;;;;;;2.83;1.20;;;;;;;-145.69;100.00;74229.00;5134449;27;20225;-77
2022/01/15 05:14:54;;;;;;;2.17;1.50;;;;;;;-145.69;100.00;74258.88;5133726;27;20193;-76
2022/01/15 05:17:20;;;;;;;1.53;1.27;;;;;;;-145.69;100.00;74288.75;5132964;27;20232;-77
2022/01/15 05:19:47;;;;;;;2.60;1.40;;;;;;;-145.69;100.00;74318.59;5133103;27;20204;-77
2022/01/15 05:22:14;;;;;;;1.63;1.17;;;;;;;-145.69;100.00;74332.53;5134300;27;20223;-77
2022/01/15 05:24:42;;;;;;;2.40;1.40;;;;;;;-145.69;100.00;74328.56;5134114;27;20200;-76
2022/01/15 05:27:08;;;;;;;3.57;1.50;;;;;;;-145.69;100.00;74320.59;5133805;27;20853;-77
2022/01/15 05:29:35;;;;;;;3.33;1.77;;;;;;;-145.69;100.00;74304.66;5133081;27;20673;-77
2022/01/15 05:32:01;;;;;;;2.63;1.73;;;;;;;-145.69;100.00;74246.91;5132741;27;20227;-76
2022/01/15 05:34:28;;;;;;;4.10;1.53;;;;;;;-145.69;100.00;74232.97;5133931;27;20567;-76
2022/01/15 05:36:54;;;;;;;6.10;2.17;;;;;;;-145.69;100.00;74223.03;5133829;27;20236;-76
2022/01/15 05:39:22;;;;;;;5.87;2.37;;;;;;;-145.69;100.00;74225.03;5133615;27;20690;-77
2022/01/15 05:41:50;;;;;;;5.90;2.30;;;;;;;-145.69;100.00;74254.88;5133921;27;20239;-76
2022/01/15 05:44:17;;;;;;;4.00;1.97;;;;;;;-145.69;100.00;74244.94;5133599;27;20200;-76
2022/01/15 05:46:44;;;;;;;4.53;2.13;;;;;;;-145.69;100.00;74236.97;5133676;27;20279;-76
2022/01/15 05:49:14;;;;;;;5.50;2.50;;;;;;;-145.69;100.00;74236.97;5133997;27;20196;-76
2022/01/15 05:51:42;;;;;;;4.20;2.17;;;;;;;-145.69;100.00;74227.00;5133860;27;20205;-76
2022/01/15 05:54:11;;;;;;;3.43;1.90;;;;;;;-145.69;100.00;74236.97;5133781;27;20200;-76
2022/01/15 05:56:39;;;;;;;4.00;2.10;;;;;;;-145.69;100.00;74260.84;5133530;27;20650;-76
2022/01/15 05:59:10;;;;;;;4.23;2.00;;;;;;;-145.69;100.00;74252.91;5133423;27;20197;-76
2022/01/15 06:01:39;;;;;;;4.30;1.70;;;;;;;-145.69;100.00;74246.91;5133480;27;20201;-76
2022/01/15 06:04:07;;;;;;;3.07;1.90;;;;;;;-145.69;100.00;74232.97;5133748;27;20201;-76
2022/01/15 06:06:34;;;;;;;4.20;1.90;;;;;;;-145.69;100.00;74260.84;5136494;27;20207;-76
2022/01/15 06:09:00;;;;;;;2.50;1.90;;;;;;;-145.69;100.00;74229.00;5137669;27;20197;-76
2022/01/15 06:11:27;;;;;;;3.73;1.93;;;;;;;-145.69;100.00;74232.97;5138019;27;20200;-76
2022/01/15 06:13:54;;;;;;;4.97;2.50;;;;;;;-145.69;100.00;74260.84;5136960;27;20255;-76
2022/01/15 06:16:24;;;;;;;5.07;2.40;;;;;;;-145.69;100.00;74282.75;5134186;27;20209;-76
2022/01/15 06:18:51;;;;;;;5.77;2.17;;;;;;;-145.69;100.00;74292.72;5133856;27;20257;-76
2022/01/15 06:21:18;;;;;;;5.38;2.60;;;;;;;-145.69;100.00;74292.72;5132774;27;20441;-76
2022/01/15 06:23:46;;;;;;;6.90;2.53;;;;;;;-145.69;100.00;74280.78;5115504;28;20252;-76
2022/01/15 06:26:16;;;;;;;4.23;2.20;;;;;;;-145.69;100.00;74288.75;5114858;28;20695;-76
2022/01/15 06:28:46;;;;;;;4.07;2.23;;;;;;;-145.69;100.00;74286.75;5116155;28;20196;-76
2022/01/15 06:31:15;;;;;;;5.60;2.47;;;;;;;-145.69;100.00;74286.75;5116798;28;20651;-76
2022/01/15 06:33:42;;;;;;;4.83;2.50;;;;;;;-145.69;100.00;74252.91;5116279;28;20224;-76
2022/01/15 06:36:09;;;;;;;7.07;4.10;;;;;;;-145.69;100.00;74191.16;5116572;28;20222;-76
2022/01/15 06:38:35;;;;;;;9.80;3.57;;;;;;;-145.69;100.00;74213.06;5130738;27;20200;-76
2022/01/15 06:41:04;;;;;;;9.70;3.73;;;;;;;-145.69;100.00;74232.97;5137599;27;20298;-76
2022/01/15 06:43:30;;;;;;;6.93;3.13;;;;;;;-145.69;100.00;74246.91;5136885;27;20196;-76
2022/01/15 06:46:00;;;;;;;5.47;2.70;;;;;;;-145.69;100.00;74246.91;5137342;27;20196;-76
2022/01/15 06:48:28;;;;;;;5.37;2.70;;;;;;;-145.69;100.00;74236.97;5135981;27;20200;-76
2022/01/15 06:51:00;;;;;;;8.77;2.87;;;;;;;-145.69;100.00;74246.91;5136727;27;20547;-76
2022/01/15 06:53:27;;;;;;;9.20;3.30;;;;;;;-145.69;100.00;74240.94;5136157;27;20260;-77
2022/01/15 06:55:54;;;;;;;8.07;2.60;;;;;;;-145.69;100.00;74215.06;5136913;27;20205;-76
2022/01/15 06:58:23;;;;;;;9.07;3.23;;;;;;;-145.69;100.00;74236.97;5137043;27;20193;-76
2022/01/15 07:00:50;;;;;;;5.57;2.60;;;;;;;-145.69;100.00;74246.91;5137125;27;20201;-76
2022/01/15 07:03:19;;;;;;;5.50;2.37;;;;;;;-145.69;100.00;74252.91;5136910;27;20651;-76
2022/01/15 07:05:48;;;;;;;7.60;2.60;;;;;;;-145.69;100.00;74234.97;5136048;27;20201;-76
2022/01/15 07:08:16;;;;;;;5.90;2.13;;;;;;;-145.69;100.00;74236.97;5136324;27;20677;-76
2022/01/15 07:10:43;;;;;;;5.77;2.30;;;;;;;-145.69;100.00;74250.91;5136407;27;20193;-77
2022/01/15 07:13:11;;;;;;;7.03;2.60;;;;;;;-145.69;100.00;74244.94;5136629;27;20632;-76
2022/01/15 07:15:37;;;;;;;5.53;2.37;;;;;;;-145.69;100.00;74240.94;5136580;27;20677;-76
2022/01/15 07:18:04;;;;;;;8.23;2.70;;;;;;;-145.69;100.00;74240.94;5135598;27;20209;-76
2022/01/15 07:20:31;;;;;;;7.93;2.53;;;;;;;-145.69;100.00;74227.00;5135754;27;20719;-76
2022/01/15 07:23:01;;;;;;;6.50;3.13;;;;;;;-145.69;100.00;74205.09;5135506;27;20201;-77
2022/01/15 07:25:29;;;;;;;11.17;3.97;;;;;;;-145.69;100.00;74181.22;5136082;27;20614;-76
2022/01/15 07:27:57;;;;;;;5.93;3.63;;;;;;;-145.69;100.00;74189.19;5136364;27;20201;-76
2022/01/15 07:30:26;;;;;;;7.80;3.77;;;;;;;-145.69;100.00;74201.13;5136241;27;20197;-77
2022/01/15 07:32:53;;;;;;;9.07;3.40;;;;;;;-145.69;100.00;74209.09;5136386;27;20251;-77
2022/01/15 07:35:35;;;;;;;7.93;3.00;;;;;;;-145.69;100.00;74195.16;5134605;27;20707;-77
2022/01/15 07:38:02;;;;;;;7.80;2.80;;;;;;;-145.69;100.00;74181.22;5135586;27;20193;-77
2022/01/15 07:40:32;;;;;;;4.13;2.50;;;;;;;-145.69;100.00;74191.16;5136045;27;20205;-77
2022/01/15 07:43:01;;;;;;;4.23;2.50;;;;;;;-145.69;100.00;74193.16;5136460;27;20200;-77
2022/01/15 07:45:30;;;;;;;5.70;2.53;;;;;;;-145.69;100.00;74205.09;5136098;27;20197;-77
2022/01/15 07:47:56;;;;;;;10.43;3.40;;;;;;;-145.69;100.00;74203.13;5136118;27;20212;-76
2022/01/15 07:50:27;;;;;;;8.07;2.93;;;;;;;-145.69;100.00;74189.19;5135913;27;20203;-77
2022/01/15 07:52:54;;;;;;;8.10;3.43;;;;;;;-145.69;100.00;74185.19;5135718;27;20224;-76
2022/01/15 07:55:21;;;;;;;8.57;4.07;;;;;;;-145.69;100.00;74177.22;5134254;27;20208;-76
2022/01/15 07:57:49;;;;;;;10.03;3.93;;;;;;;-145.69;100.00;74171.25;5135726;27;20678;-77
2022/01/15 08:00:17;;;;;;;11.00;3.90;;;;;;;-145.69;100.00;74157.31;5136081;27;20197;-77
2022/01/15 08:02:45;;;;;;;7.30;3.67;;;;;;;-145.69;100.00;74151.34;5135829;27;20211;-77
2022/01/15 08:05:12;;;;;;;8.13;3.93;;;;;;;-145.69;100.00;74145.38;5134946;27;20197;-77
2022/01/15 08:07:40;;;;;;;8.77;3.40;;;;;;;-145.69;100.00;74141.38;5134969;27;20271;-77
2022/01/15 08:10:07;;;;;;;7.20;3.53;;;;;;;-145.69;100.00;74145.38;5136011;27;20209;-77
2022/01/15 08:12:33;;;;;;;7.13;3.43;;;;;;;-145.69;100.00;74127.44;5135777;27;20231;-76
2022/01/15 08:15:02;;;;;;;6.43;3.30;;;;;;;-145.69;100.00;74113.50;5135539;27;20239;-77
2022/01/15 08:17:29;;;;;;;7.83;3.33;;;;;;;-145.69;100.00;74111.50;5115288;27;20203;-77
2022/01/15 08:19:56;;;;;;;9.40;3.87;;;;;;;-145.69;100.00;74109.53;5129063;27;20192;-77
2022/01/15 08:22:22;;;;;;;6.70;3.23;;;;;;;-145.69;100.00;74101.56;5135104;27;20197;-77
2022/01/15 08:24:50;;;;;;;5.53;3.17;;;;;;;-145.69;100.00;74097.56;5135747;27;20201;-77
2022/01/15 08:27:16;;;;;;;6.00;3.10;;;;;;;-145.69;100.00;74101.56;5135620;27;20235;-76
2022/01/15 08:29:43;;;;;;;10.67;3.30;;;;;;;-145.69;100.00;74093.59;5133856;27;20659;-77
2022/01/15 08:32:11;;;;;;;7.63;3.10;;;;;;;-145.69;100.00;74087.63;5134993;27;20651;-76
2022/01/15 08:34:38;;;;;;;5.77;2.90;;;;;;;-145.69;100.00;74077.66;5134241;27;20277;-77
2022/01/15 08:37:05;;;;;;;6.43;3.13;;;;;;;-145.69;100.00;74069.69;5133001;27;20710;-76
2022/01/15 08:39:36;;;;;;;11.47;3.80;;;;;;;-145.69;100.00;74065.72;5133119;27;20193;-77
2022/01/15 08:42:02;;;;;;;8.57;3.00;;;;;;;-145.69;100.00;74061.72;5134177;27;20228;-76
2022/01/15 08:44:32;;;;;;;5.47;3.03;;;;;;;-145.69;100.00;74057.75;5134817;27;20581;-77
2022/01/15 08:47:01;;;;;;;8.10;3.10;;;;;;;-145.69;100.00;74053.78;5134078;27;20203;-77
2022/01/15 08:49:32;;;;;;;9.13;3.80;;;;;;;-145.69;100.00;74033.84;5134374;27;20201;-77
2022/01/15 08:51:58;;;;;;;9.50;3.87;;;;;;;-145.69;100.00;74009.97;5134202;27;20201;-77
2022/01/15 08:54:25;;;;;;;15.90;8.00;;;;;;;-145.69;100.00;74005.97;5134416;27;20277;-76
2022/01/15 08:56:51;;;;;;;73.37;23.60;;;;;;;-145.69;100.00;73984.09;5134707;27;20197;-77
2022/01/15 08:59:21;;;;;;;15.00;5.77;;;;;;;-145.69;100.00;73972.13;5134971;27;20204;-77
2022/01/15 09:01:48;;;;;;;8.17;4.10;;;;;;;-145.69;100.00;73962.19;5134778;27;20200;-77
2022/01/15 09:04:15;;;;;;;7.23;3.67;;;;;;;-145.69;100.00;73962.19;5134868;27;20297;-77
2022/01/15 09:06:43;;;;;;;7.23;3.53;;;;;;;-145.69;100.00;73950.22;5134666;27;20197;-77
2022/01/15 09:09:09;;;;;;;5.27;2.77;;;;;;;-145.69;100.00;73932.31;5134682;27;20205;-78
2022/01/15 09:11:36;;;;;;;9.53;3.40;;;;;;;-145.69;100.00;73920.38;5134575;27;20200;-79
2022/01/15 09:14:03;;;;;;;10.83;4.00;;;;;;;-145.69;100.00;73904.44;5134848;27;20273;-78
2022/01/15 09:16:29;;;;;;;9.50;4.40;;;;;;;-145.69;100.00;73894.47;5134355;27;20289;-78
2022/01/15 09:18:56;;;;;;;14.07;4.10;;;;;;;-145.69;100.00;73878.56;5134215;27;20200;-78
2022/01/15 09:21:23;;;;;;;35.67;14.60;;;;;;;-145.69;100.00;73866.59;5133716;27;20224;-79
2022/01/15 09:23:51;;;;;;;13.60;6.27;;;;;;;-145.69;100.00;73854.66;5135245;27;20205;-78
2022/01/15 09:26:22;;;;;;;9.70;5.33;;;;;;;-145.69;100.00;73838.72;5135613;27;20197;-78
2022/01/15 09:31:34;;;;;;;8.97;3.70;;;;;;;-145.69;100.00;73838.72;5134281;27;20199;-78
2022/01/15 09:34:00;;;;;;;7.77;3.67;;;;;;;-145.69;100.00;73818.81;5134138;27;20227;-78
2022/01/15 09:36:27;;;;;;;9.13;3.30;;;;;;;-145.69;100.00;73806.88;5134212;27;20228;-80
2022/01/15 09:38:55;;;;;;;6.03;3.70;;;;;;;-145.69;100.00;73796.91;5128100;27;20201;-79
2022/01/15 09:41:22;;;;;;;7.07;3.60;;;;;;;-145.69;100.00;73782.97;5133286;27;20278;-78
2022/01/15 09:43:49;;;;;;;5.53;3.40;;;;;;;-145.69;100.00;73777.00;5133528;27;20582;-79
2022/01/15 09:46:18;;;;;;;17.53;4.37;;;;;;;-145.69;100.00;73767.06;5133763;27;20200;-79
2022/01/15 09:48:48;;;;;;;15.83;6.00;;;;;;;-145.69;100.00;73735.19;5133750;27;20212;-79
2022/01/15 09:51:14;;;;;;;9.17;4.93;;;;;;;-145.69;100.00;73723.25;5134180;27;20570;-81
2022/01/15 09:53:42;;;;;;;7.67;4.37;;;;;;;-145.69;100.00;73719.25;5132156;27;20225;-79
2022/01/15 09:56:10;;;;;;;8.37;4.00;;;;;;;-145.69;100.00;73723.25;5133259;27;20551;-80
2022/01/15 09:58:36;;;;;;;7.97;3.97;;;;;;;-145.69;100.00;73715.28;5134099;28;20647;-79
2022/01/15 10:01:03;;;;;;;7.23;3.87;;;;;;;-145.69;100.00;73703.34;5133731;28;20651;-79
2022/01/15 10:03:29;;;;;;;7.63;3.77;;;;;;;-145.69;100.00;73699.34;5133592;28;20201;-81
2022/01/15 10:05:56;;;;;;;7.70;4.03;;;;;;;-145.69;100.00;73691.38;5132610;28;20227;-78
2022/01/15 10:08:22;;;;;;;8.77;5.07;;;;;;;-145.69;100.00;73677.47;5133622;28;20203;-79
2022/01/15 10:10:50;;;;;;;15.37;6.30;;;;;;;-145.69;100.00;73661.53;5133220;28;20199;-83
2022/01/15 10:13:20;;;;;;;11.80;5.87;;;;;;;-145.69;100.00;73651.56;5133478;28;20220;-79
2022/01/15 10:15:49;;;;;;;19.50;8.13;;;;;;;-145.69;100.00;73643.59;5133251;27;20201;-80
2022/01/15 10:18:20;;;;;;;23.13;9.27;;;;;;;-145.69;100.00;73629.66;5132635;28;20208;-80
2022/01/15 10:20:46;;;;;;;26.13;10.30;;;;;;;-145.69;100.00;73615.72;5120249;28;20853;-80
2022/01/15 10:23:16;;;;;;;23.20;10.53;;;;;;;-145.69;100.00;73607.78;5112800;28;20232;-80
2022/01/15 10:25:42;;;;;;;17.83;7.83;;;;;;;-145.69;100.00;73595.81;5120313;28;20214;-80
2022/01/15 10:28:09;;;;;;;13.23;6.63;;;;;;;-145.69;100.00;73587.88;5133679;27;20215;-80
2022/01/15 10:30:38;;;;;;;11.83;5.83;;;;;;;-145.69;100.00;73571.94;5133466;27;20215;-80
2022/01/15 10:33:06;;;;;;;12.73;5.70;;;;;;;-145.69;100.00;73567.94;5133124;27;20574;-80
2022/01/15 10:35:34;;;;;;;14.70;6.77;;;;;;;-145.69;100.00;73552.03;5131628;27;20228;-80
2022/01/15 10:38:06;;;;;;;10.87;6.00;;;;;;;-145.69;100.00;73546.06;5131618;27;20212;-80
2022/01/15 10:40:40;;;;;;;14.17;5.90;;;;;;;-145.69;100.00;73544.06;5132147;27;20197;-80
2022/01/15 10:43:07;;;;;;;13.13;6.70;;;;;;;-145.69;100.00;73548.03;5133540;27;20201;-82
2022/01/15 10:45:35;;;;;;;15.43;7.20;;;;;;;-145.69;100.00;73532.13;5131972;27;20197;-81
2022/01/15 10:48:08;;;;;;;23.53;9.60;;;;;;;-145.69;100.00;73526.16;5133122;27;20197;-81
2022/01/15 10:50:37;;;;;;;28.53;10.93;;;;;;;-145.69;100.00;73514.19;5132277;27;20197;-84
2022/01/15 10:53:07;;;;;;;22.83;10.10;;;;;;;-145.69;100.00;73514.19;5135427;27;20219;-82
2022/01/15 10:55:35;;;;;;;17.13;8.63;;;;;;;-145.69;100.00;73484.34;5135677;27;20261;-84
2022/01/15 10:58:04;;;;;;;18.73;7.83;;;;;;;-145.69;100.00;73480.34;5135792;27;20665;-81
2022/01/15 11:00:38;;;;;;;16.27;8.50;;;;;;;-145.69;100.00;73464.44;5136070;27;20204;-81
2022/01/15 11:03:08;;;;;;;13.40;7.60;;;;;;;-145.69;100.00;73440.53;5136218;27;20589;-81
2022/01/15 11:05:36;;;;;;;12.30;6.50;;;;;;;-145.69;100.00;73428.59;5137024;27;20208;-83
2022/01/15 11:08:15;;;;;;;12.20;6.50;;;;;;;-145.69;100.00;73416.66;5136604;27;20659;-80
2022/01/15 11:10:50;;;;;;;12.27;6.23;;;;;;;-145.69;100.00;73408.69;5135897;27;20197;-80
2022/01/15 11:13:19;;;;;;;16.17;6.90;;;;;;;-145.69;100.00;73414.66;5135521;27;20547;-80
2022/01/15 11:15:48;;;;;;;11.77;5.90;;;;;;;-145.69;100.00;73410.66;5136586;27;20200;-79
2022/01/15 11:18:19;;;;;;;13.90;6.67;;;;;;;-145.69;100.00;73404.69;5136503;27;20201;-78
2022/01/15 11:20:49;;;;;;;13.20;6.10;;;;;;;-145.69;100.00;73388.78;5136680;27;20200;-83